createdAt,value
2019-02-03T00:02:15.721Z,304.23
2019-02-03T00:04:45.351Z,307.93
2019-02-03T00:07:14.832Z,316.97
2019-02-03T00:09:44.765Z,280.33
2019-02-03T00:12:15.058Z,286.83
2019-02-03T00:14:44.695Z,292.60
2019-02-03T00:17:15.303Z,279.60
2019-02-03T00:19:45.546Z,273.90
2019-02-03T00:22:14.895Z,289.63
2019-02-03T00:24:44.762Z,302.17
2019-02-03T00:27:15.817Z,284.47
2019-02-03T00:29:45.287Z,282.40
2019-02-03T00:32:16.416Z,240.90
2019-02-03T00:34:46.854Z,263.80
2019-02-03T00:37:18.424Z,231.57
2019-02-03T00:39:52.354Z,237.90
2019-02-03T00:42:21.866Z,249.80
2019-02-03T00:44:52.445Z,282.43
2019-02-03T00:47:22.095Z,253.50
2019-02-03T00:49:51.810Z,248.30
2019-02-03T00:52:25.161Z,260.17
2019-02-03T00:54:54.585Z,299.77
2019-02-03T00:57:25.140Z,292.60
2019-02-03T00:59:55.703Z,332.80
2019-02-03T01:02:25.522Z,305.03
2019-02-03T01:04:54.981Z,276.33
2019-02-03T01:07:27.505Z,263.80
2019-02-03T01:09:56.610Z,300.17
2019-02-03T01:12:28.347Z,300.17
2019-02-03T01:14:59.011Z,306.60
2019-02-03T01:17:28.526Z,319.80
2019-02-03T01:19:58.206Z,311.83
2019-02-03T01:22:27.609Z,299.77
2019-02-03T01:24:56.980Z,316.27
2019-02-03T01:27:26.275Z,296.47
2019-02-03T01:29:56.377Z,314.40
2019-02-03T01:32:25.716Z,296.97
2019-02-03T01:34:55.500Z,299.40
2019-02-03T01:37:24.898Z,316.00
2019-02-03T01:39:54.319Z,293.33
2019-02-03T01:42:23.916Z,296.63
2019-02-03T01:44:53.342Z,271.57
2019-02-03T01:47:22.740Z,307.70
2019-02-03T01:49:52.049Z,300.13
2019-02-03T01:52:21.634Z,298.87
2019-02-03T01:54:51.551Z,255.50
2019-02-03T01:57:21.344Z,276.50
2019-02-03T01:59:50.802Z,280.47
2019-02-03T02:02:20.233Z,273.67
2019-02-03T02:04:49.670Z,302.70
2019-02-03T02:07:19.140Z,268.37
2019-02-03T02:09:49.688Z,279.10
2019-02-03T02:12:19.821Z,263.33
2019-02-03T02:14:49.951Z,309.83
2019-02-03T02:17:19.364Z,270.03
2019-02-03T02:19:48.726Z,311.97
2019-02-03T02:22:18.258Z,300.50
2019-02-03T02:24:47.699Z,299.70
2019-02-03T02:27:17.247Z,276.73
2019-02-03T02:29:46.786Z,255.80
2019-02-03T02:32:16.174Z,282.67
2019-02-03T02:34:46.158Z,292.80
2019-02-03T02:37:15.890Z,256.07
2019-02-03T02:39:45.577Z,290.00
2019-02-03T02:42:14.996Z,253.43
2019-02-03T02:44:44.455Z,291.60
2019-02-03T02:47:13.874Z,253.63
2019-02-03T02:49:43.201Z,294.27
2019-02-03T02:52:12.643Z,289.30
2019-02-03T02:54:42.275Z,322.20
2019-02-03T02:57:11.819Z,248.53
2019-02-03T02:59:41.333Z,283.57
2019-02-03T03:02:10.746Z,287.17
2019-02-03T03:04:41.792Z,289.53
2019-02-03T03:07:11.164Z,284.57
2019-02-03T03:09:40.541Z,265.23
2019-02-03T03:12:09.942Z,294.07
2019-02-03T03:14:39.319Z,274.17
2019-02-03T03:17:08.847Z,276.00
2019-02-03T03:19:38.205Z,279.20
2019-02-03T03:22:07.592Z,257.97
2019-02-03T03:24:37.831Z,235.67
2019-02-03T03:27:07.338Z,270.50
2019-02-03T03:29:36.797Z,245.40
2019-02-03T03:32:07.723Z,282.43
2019-02-03T03:34:37.274Z,239.23
2019-02-03T03:37:06.696Z,275.40
2019-02-03T03:39:36.466Z,267.00
2019-02-03T03:42:05.967Z,255.63
2019-02-03T03:44:35.506Z,237.10
2019-02-03T03:47:04.880Z,276.53
2019-02-03T03:49:34.303Z,257.23
2019-02-03T03:52:03.705Z,288.87
2019-02-03T03:54:33.163Z,272.53
2019-02-03T03:57:03.444Z,254.10
2019-02-03T03:59:34.359Z,260.93
2019-02-03T04:02:03.802Z,249.23
2019-02-03T04:04:33.334Z,283.83
2019-02-03T04:07:03.733Z,247.30
2019-02-03T04:09:33.722Z,250.43
2019-02-03T04:12:03.130Z,280.17
2019-02-03T04:14:32.624Z,275.23
2019-02-03T04:17:02.870Z,256.80
2019-02-03T04:19:34.107Z,267.37
2019-02-03T04:22:03.842Z,252.50
2019-02-03T04:24:34.003Z,269.47
2019-02-03T04:27:03.406Z,265.77
2019-02-03T04:29:32.768Z,275.37
2019-02-03T04:32:02.522Z,282.53
2019-02-03T04:34:32.498Z,275.27
2019-02-03T04:37:02.857Z,272.37
2019-02-03T04:39:32.398Z,244.13
2019-02-03T04:42:02.046Z,272.37
2019-02-03T04:44:32.596Z,275.93
2019-02-03T04:47:02.459Z,295.77
2019-02-03T04:49:31.870Z,277.03
2019-02-03T04:52:01.428Z,267.53
2019-02-03T04:54:30.874Z,275.13
2019-02-03T04:57:00.709Z,265.63
2019-02-03T04:59:31.243Z,227.27
2019-02-03T05:02:02.492Z,272.57
2019-02-03T05:04:32.495Z,272.63
2019-02-03T05:07:03.109Z,255.73
2019-02-03T05:09:32.519Z,275.30
2019-02-03T05:12:02.307Z,261.33
2019-02-03T05:14:32.523Z,243.43
2019-02-03T05:17:02.644Z,275.03
2019-02-03T05:19:32.084Z,265.67
2019-02-03T05:22:01.626Z,265.83
2019-02-03T05:24:31.345Z,268.60
2019-02-03T05:27:01.706Z,239.07
2019-02-03T05:29:32.512Z,207.90
2019-02-03T05:32:03.122Z,250.67
2019-02-03T05:34:32.487Z,231.77
2019-02-03T05:37:02.828Z,258.90
2019-02-03T05:39:32.213Z,232.50
2019-02-03T05:42:02.002Z,248.70
2019-02-03T05:44:32.261Z,218.03
2019-02-03T05:47:01.711Z,227.63
2019-02-03T05:49:31.075Z,235.40
2019-02-03T05:52:00.469Z,218.13
2019-02-03T05:54:29.982Z,222.57
2019-02-03T05:57:00.612Z,223.27
2019-02-03T05:59:30.016Z,226.60
2019-02-03T06:02:00.383Z,244.03
2019-02-03T06:04:30.690Z,215.07
2019-02-03T06:07:00.046Z,190.10
2019-02-03T06:09:36.236Z,222.77
2019-02-03T06:12:00.521Z,187.00
2019-02-03T06:14:30.069Z,222.03
2019-02-03T06:16:59.394Z,215.03
2019-02-03T06:19:28.934Z,233.23
2019-02-03T06:21:58.722Z,202.50
2019-02-03T06:24:28.793Z,181.83
2019-02-03T06:26:59.042Z,197.20
2019-02-03T06:29:28.848Z,208.40
2019-02-03T06:31:58.219Z,195.83
2019-02-03T06:34:27.649Z,201.37
2019-02-03T06:36:57.521Z,210.77
2019-02-03T06:39:26.911Z,197.87
2019-02-03T06:41:56.274Z,189.27
2019-02-03T06:44:27.102Z,190.70
2019-02-03T06:47:18.931Z,191.20
2019-02-03T06:49:49.164Z,202.47
2019-02-03T06:52:19.723Z,197.07
2019-02-03T06:54:49.590Z,186.17
2019-02-03T06:57:19.323Z,197.70
2019-02-03T06:59:51.254Z,183.53
2019-02-03T07:02:21.694Z,166.63
2019-02-03T07:04:51.167Z,170.70
2019-02-03T07:07:20.560Z,163.90
2019-02-03T07:09:59.997Z,196.20
2019-02-03T07:12:21.846Z,178.33
2019-02-03T07:14:51.306Z,203.50
2019-02-03T07:17:22.353Z,198.73
2019-02-03T07:19:51.817Z,183.40
2019-02-03T07:22:21.194Z,199.77
2019-02-03T07:24:50.566Z,189.13
2019-02-03T07:27:22.052Z,169.10
2019-02-03T07:29:53.013Z,172.33
2019-02-03T07:32:22.493Z,177.13
2019-02-03T07:34:53.821Z,200.90
2019-02-03T07:37:24.196Z,192.23
2019-02-03T07:39:54.166Z,171.40
2019-02-03T07:42:27.159Z,179.43
2019-02-03T07:44:56.574Z,178.37
2019-02-03T07:47:28.192Z,180.73
2019-02-03T07:49:57.934Z,154.67
2019-02-03T07:52:27.338Z,169.20
2019-02-03T07:54:56.709Z,177.20
2019-02-03T07:57:26.144Z,170.30
2019-02-03T07:59:55.660Z,164.23
2019-02-03T08:02:25.263Z,166.60
2019-02-03T08:04:55.041Z,161.40
2019-02-03T08:07:24.424Z,145.10
2019-02-03T08:09:53.857Z,141.53
2019-02-03T08:12:24.524Z,156.90
2019-02-03T08:14:53.986Z,136.27
2019-02-03T08:17:23.874Z,143.47
2019-02-03T08:19:53.639Z,140.60
2019-02-03T08:22:24.243Z,130.00
2019-02-03T08:24:53.775Z,154.47
2019-02-03T08:27:23.355Z,133.33
2019-02-03T08:29:52.870Z,143.33
2019-02-03T08:32:22.608Z,146.50
2019-02-03T08:34:54.426Z,108.40
2019-02-03T08:37:24.151Z,118.73
2019-02-03T08:39:54.667Z,105.60
2019-02-03T08:42:24.104Z,113.80
2019-02-03T08:44:53.836Z,119.83
2019-02-03T08:47:23.236Z,119.80
2019-02-03T08:49:53.387Z,107.30
2019-02-03T08:52:24.534Z,103.27
2019-02-03T08:54:58.370Z,106.23
2019-02-03T08:57:26.104Z,117.37
2019-02-03T08:59:55.798Z,112.63
2019-02-03T09:02:26.215Z,98.43
2019-02-03T09:04:57.227Z,113.03
2019-02-03T09:07:27.151Z,101.23
2019-02-03T09:09:57.109Z,90.30
2019-02-03T09:12:26.929Z,97.33
2019-02-03T09:14:56.938Z,97.73
2019-02-03T09:17:26.470Z,87.47
2019-02-03T09:19:57.988Z,86.70
2019-02-03T09:22:27.140Z,87.83
2019-02-03T09:24:58.073Z,85.57
2019-02-03T09:27:28.536Z,79.67
2019-02-03T09:29:58.067Z,84.27
2019-02-03T09:32:27.544Z,81.93
2019-02-03T09:34:58.246Z,77.63
2019-02-03T09:37:29.673Z,78.67
2019-02-03T09:39:59.791Z,73.83
2019-02-03T09:42:29.264Z,83.93
2019-02-03T09:44:59.152Z,83.43
2019-02-03T09:47:29.063Z,85.07
2019-02-03T09:49:58.903Z,81.97
2019-02-03T09:52:28.496Z,76.53
2019-02-03T09:54:58.139Z,78.33
2019-02-03T09:57:27.728Z,78.27
2019-02-03T09:59:59.159Z,77.07
2019-02-03T10:02:31.329Z,75.70
2019-02-03T10:05:02.321Z,62.93
2019-02-03T10:07:32.027Z,59.23
2019-02-03T10:10:01.536Z,65.80
2019-02-03T10:12:31.443Z,74.80
2019-02-03T10:15:05.347Z,73.93
2019-02-03T10:17:39.801Z,59.20
2019-02-03T10:20:10.351Z,63.30
2019-02-03T10:22:40.158Z,63.07
2019-02-03T10:25:13.054Z,65.83
2019-02-03T10:27:45.995Z,61.97
2019-02-03T10:30:16.194Z,57.80
2019-02-03T10:32:46.271Z,63.60
2019-02-03T10:35:23.658Z,60.97
2019-02-03T10:37:49.412Z,66.77
2019-02-03T10:40:21.609Z,53.57
2019-02-03T10:42:52.228Z,56.53
2019-02-03T10:45:24.552Z,48.13
2019-02-03T10:47:54.502Z,58.97
2019-02-03T10:50:27.659Z,66.60
2019-02-03T10:52:57.560Z,47.27
2019-02-03T10:55:29.079Z,51.63
2019-02-03T10:58:02.232Z,48.03
2019-02-03T11:00:34.958Z,52.23
2019-02-03T11:03:07.700Z,50.40
2019-02-03T11:05:44.036Z,53.77
2019-02-03T11:08:17.070Z,49.80
2019-02-03T11:10:48.708Z,56.97
2019-02-03T11:13:19.232Z,40.63
2019-02-03T11:15:48.792Z,41.90
2019-02-03T11:18:19.347Z,49.00
2019-02-03T11:20:48.895Z,45.40
2019-02-03T11:23:18.893Z,40.77
2019-02-03T11:25:48.755Z,45.47
2019-02-03T11:28:18.330Z,38.90
2019-02-03T11:30:48.559Z,41.00
2019-02-03T11:33:18.653Z,40.20
2019-02-03T11:35:48.186Z,37.33
2019-02-03T11:38:19.698Z,37.13
2019-02-03T11:40:49.296Z,49.57
2019-02-03T11:43:17.029Z,38.83
2019-02-03T11:45:44.770Z,37.30
2019-02-03T11:48:18.437Z,26.07
2019-02-03T11:50:46.934Z,28.77
2019-02-03T11:53:17.360Z,39.63
2019-02-03T11:55:45.012Z,32.03
2019-02-03T11:58:13.341Z,30.30
2019-02-03T12:00:41.055Z,30.83
2019-02-03T12:03:08.942Z,40.70
2019-02-03T12:05:37.309Z,39.83
2019-02-03T12:08:05.262Z,49.97
2019-02-03T12:10:33.750Z,27.83
2019-02-03T12:13:02.031Z,28.67
2019-02-03T12:15:30.081Z,34.70
2019-02-03T12:17:57.849Z,23.23
2019-02-03T12:20:25.482Z,25.13
2019-02-03T12:22:55.286Z,27.60
2019-02-03T12:25:25.277Z,39.53
2019-02-03T12:28:02.488Z,28.43
2019-02-03T12:30:35.123Z,30.10
2019-02-03T12:33:05.089Z,28.93
2019-02-03T12:35:33.426Z,28.43
2019-02-03T12:38:01.041Z,41.10
2019-02-03T12:40:30.453Z,27.27
2019-02-03T12:42:58.360Z,20.17
2019-02-03T12:45:27.333Z,27.50
2019-02-03T12:47:56.813Z,18.70
2019-02-03T12:50:24.531Z,28.47
2019-02-03T12:52:52.323Z,33.03
2019-02-03T12:55:25.385Z,28.10
2019-02-03T12:57:52.980Z,16.67
2019-02-03T13:00:23.726Z,21.10
2019-02-03T13:02:52.211Z,22.30
2019-02-03T13:05:21.089Z,27.37
2019-02-03T13:07:48.868Z,21.57
2019-02-03T13:10:19.582Z,23.57
2019-02-03T13:12:47.231Z,20.37
2019-02-03T13:15:18.994Z,20.53
2019-02-03T13:17:47.574Z,20.67
2019-02-03T13:20:17.888Z,19.23
2019-02-03T13:22:47.828Z,16.93
2019-02-03T13:25:15.679Z,19.57
2019-02-03T13:27:44.772Z,30.80
2019-02-03T13:30:16.576Z,20.27
2019-02-03T13:32:44.194Z,17.80
2019-02-03T13:35:11.891Z,20.67
2019-02-03T13:37:39.951Z,15.93
2019-02-03T13:40:10.002Z,20.63
2019-02-03T13:42:39.696Z,19.43
2019-02-03T13:45:20.327Z,18.17
2019-02-03T13:47:39.787Z,20.67
2019-02-03T13:50:12.744Z,22.93
2019-02-03T13:52:42.278Z,21.60
2019-02-03T13:55:10.135Z,21.07
2019-02-03T13:57:38.364Z,14.87
2019-02-03T14:00:09.674Z,25.43
2019-02-03T14:02:37.264Z,11.93
2019-02-03T14:05:07.785Z,15.70
2019-02-03T14:07:37.276Z,17.10
2019-02-03T14:10:07.411Z,18.17
2019-02-03T14:12:35.085Z,11.90
2019-02-03T14:15:03.545Z,24.37
2019-02-03T14:17:32.602Z,14.17
2019-02-03T14:20:00.595Z,18.20
2019-02-03T14:22:29.029Z,21.70
2019-02-03T14:24:56.770Z,14.40
2019-02-03T14:27:24.452Z,17.23
2019-02-03T14:29:52.447Z,20.83
2019-02-03T14:32:20.468Z,20.40
2019-02-03T14:34:50.207Z,20.53
2019-02-03T14:37:20.251Z,13.63
2019-02-03T14:39:49.799Z,23.80
2019-02-03T14:42:17.841Z,14.40
2019-02-03T14:44:45.486Z,39.47
2019-02-03T14:47:13.610Z,30.27
2019-02-03T14:49:41.261Z,16.93
2019-02-03T14:52:11.176Z,67.03
2019-02-03T14:54:39.585Z,33.43
2019-02-03T14:57:07.246Z,56.80
2019-02-03T14:59:37.169Z,71.93
2019-02-03T15:02:05.427Z,24.57
2019-02-03T15:04:35.402Z,49.57
2019-02-03T15:07:03.007Z,14.77
2019-02-03T15:09:31.041Z,17.03
2019-02-03T15:11:59.594Z,23.83
2019-02-03T15:14:27.187Z,11.73
2019-02-03T15:16:54.859Z,16.53
2019-02-03T15:19:23.233Z,16.73
2019-02-03T15:21:50.788Z,18.33
2019-02-03T15:24:18.378Z,21.37
2019-02-03T15:26:47.269Z,16.70
2019-02-03T15:29:14.917Z,20.63
2019-02-03T15:31:46.938Z,21.53
2019-02-03T15:34:14.815Z,32.87
2019-02-03T15:36:42.875Z,13.63
2019-02-03T15:39:10.705Z,15.93
2019-02-03T15:41:38.435Z,22.13
2019-02-03T15:44:06.839Z,15.40
2019-02-03T15:46:34.676Z,18.50
2019-02-03T15:49:03.829Z,15.83
2019-02-03T15:51:32.182Z,18.43
2019-02-03T15:53:59.851Z,15.90
2019-02-03T15:56:28.193Z,18.80
2019-02-03T15:58:57.246Z,14.60
2019-02-03T16:01:27.096Z,16.77
2019-02-03T16:03:54.735Z,16.77
2019-02-03T16:06:25.862Z,15.67
2019-02-03T16:08:53.539Z,19.10
2019-02-03T16:11:23.060Z,30.40
2019-02-03T16:13:51.399Z,17.80
2019-02-03T16:16:19.240Z,22.23
2019-02-03T16:18:46.914Z,18.00
2019-02-03T16:21:16.300Z,25.47
2019-02-03T16:23:44.427Z,15.57
2019-02-03T16:26:12.199Z,29.10
2019-02-03T16:28:40.754Z,22.93
2019-02-03T16:31:08.935Z,33.53
2019-02-03T16:33:38.348Z,22.37
2019-02-03T16:36:06.895Z,16.57
2019-02-03T16:38:39.064Z,24.90
2019-02-03T16:41:10.559Z,17.80
2019-02-03T16:43:48.760Z,29.83
2019-02-03T16:46:09.647Z,81.57
2019-02-03T16:48:38.884Z,30.80
2019-02-03T16:51:06.599Z,23.77
2019-02-03T16:53:34.597Z,28.30
2019-02-03T16:56:03.190Z,34.83
2019-02-03T16:58:31.865Z,27.83
2019-02-03T17:01:00.399Z,18.20
2019-02-03T17:03:36.709Z,25.50
2019-02-03T17:06:06.850Z,23.13
2019-02-03T17:08:36.214Z,18.77
2019-02-03T17:11:05.605Z,47.10
2019-02-03T17:13:34.222Z,26.70
2019-02-03T17:16:02.672Z,27.80
2019-02-03T17:18:30.813Z,29.07
2019-02-03T17:21:02.335Z,28.77
2019-02-03T17:23:31.591Z,23.20
2019-02-03T17:26:05.679Z,24.63
2019-02-03T17:28:34.608Z,25.13
2019-02-03T17:31:03.652Z,19.47
2019-02-03T17:33:33.310Z,26.03
2019-02-03T17:36:01.546Z,26.37
2019-02-03T17:38:32.213Z,22.20
2019-02-03T17:41:00.012Z,20.53
2019-02-03T17:43:27.899Z,19.33
2019-02-03T17:45:56.371Z,18.03
2019-02-03T17:48:24.758Z,34.80
2019-02-03T17:50:52.536Z,23.77
2019-02-03T17:53:20.293Z,20.27
2019-02-03T17:55:48.066Z,23.93
2019-02-03T17:58:16.310Z,21.90
2019-02-03T18:00:49.074Z,25.83
2019-02-03T18:03:16.960Z,12.87
2019-02-03T18:05:46.367Z,18.57
2019-02-03T18:08:17.272Z,19.00
2019-02-03T18:10:46.074Z,25.87
2019-02-03T18:13:14.790Z,23.90
2019-02-03T18:15:42.762Z,21.77
2019-02-03T18:18:10.789Z,23.90
2019-02-03T18:20:39.027Z,26.73
2019-02-03T18:23:09.345Z,33.47
2019-02-03T18:25:39.062Z,23.50
2019-02-03T18:28:09.319Z,29.47
2019-02-03T18:30:37.839Z,30.57
2019-02-03T18:33:07.857Z,40.87
2019-02-03T18:35:37.050Z,25.77
2019-02-03T18:38:07.253Z,34.70
2019-02-03T18:40:36.500Z,39.10
2019-02-03T18:43:06.956Z,33.03
2019-02-03T18:45:35.735Z,33.67
2019-02-03T18:48:04.480Z,22.60
2019-02-03T18:50:32.573Z,30.50
2019-02-03T18:53:00.386Z,24.00
2019-02-03T18:55:30.099Z,26.37
2019-02-03T18:57:58.806Z,21.80
2019-02-03T19:00:28.600Z,35.90
2019-02-03T19:02:57.100Z,27.70
2019-02-03T19:05:28.670Z,29.43
2019-02-03T19:07:57.762Z,29.33
2019-02-03T19:10:26.551Z,32.70
2019-02-03T19:12:55.281Z,26.40
2019-02-03T19:15:26.312Z,26.60
2019-02-03T19:17:54.474Z,30.30
2019-02-03T19:20:24.449Z,28.53
2019-02-03T19:22:52.514Z,27.10
2019-02-03T19:25:20.247Z,35.27
2019-02-03T19:27:49.744Z,48.63
2019-02-03T19:30:18.678Z,43.50
2019-02-03T19:32:47.542Z,37.93
2019-02-03T19:35:15.628Z,35.20
2019-02-03T19:37:43.437Z,33.50
2019-02-03T19:40:13.960Z,25.67
2019-02-03T19:42:42.764Z,31.53
2019-02-03T19:45:11.533Z,46.83
2019-02-03T19:47:39.822Z,36.90
2019-02-03T19:50:10.161Z,28.63
2019-02-03T19:52:38.768Z,29.10
2019-02-03T19:55:07.658Z,23.07
2019-02-03T19:57:35.448Z,23.63
2019-02-03T20:00:07.445Z,25.90
2019-02-03T20:02:35.383Z,17.53
2019-02-03T20:05:03.582Z,25.47
2019-02-03T20:07:31.719Z,21.00
2019-02-03T20:09:59.814Z,20.70
2019-02-03T20:12:27.504Z,32.67
2019-02-03T20:14:57.289Z,23.73
2019-02-03T20:17:25.933Z,25.80
2019-02-03T20:19:53.998Z,29.80
2019-02-03T20:22:21.816Z,23.13
2019-02-03T20:24:49.593Z,25.80
2019-02-03T20:27:17.689Z,22.50
2019-02-03T20:29:45.456Z,23.77
2019-02-03T20:32:13.280Z,26.43
2019-02-03T20:34:41.069Z,26.67
2019-02-03T20:37:09.320Z,26.50
2019-02-03T20:39:37.042Z,24.20
2019-02-03T20:42:07.064Z,24.13
2019-02-03T20:44:34.661Z,35.73
2019-02-03T20:47:02.945Z,28.37
2019-02-03T20:49:30.953Z,33.83
2019-02-03T20:51:59.879Z,29.30
2019-02-03T20:54:30.780Z,33.03
2019-02-03T20:56:59.723Z,40.10
2019-02-03T20:59:28.057Z,36.40
2019-02-03T21:01:56.243Z,33.03
2019-02-03T21:04:27.297Z,33.60
2019-02-03T21:06:55.168Z,33.03
2019-02-03T21:09:23.231Z,41.10
2019-02-03T21:11:51.561Z,34.73
2019-02-03T21:14:21.119Z,28.30
2019-02-03T21:16:49.639Z,26.70
2019-02-03T21:19:18.198Z,45.53
2019-02-03T21:21:46.229Z,33.97
2019-02-03T21:24:13.833Z,37.20
2019-02-03T21:26:44.005Z,29.03
2019-02-03T21:29:12.166Z,30.63
2019-02-03T21:31:39.893Z,31.60
2019-02-03T21:34:08.351Z,30.17
2019-02-03T21:36:36.014Z,29.33
2019-02-03T21:39:06.885Z,33.20
2019-02-03T21:41:34.582Z,40.33
2019-02-03T21:44:02.378Z,27.80
2019-02-03T21:46:30.084Z,41.07
2019-02-03T21:48:58.270Z,25.50
2019-02-03T21:51:25.932Z,36.50
2019-02-03T21:53:55.767Z,26.13
2019-02-03T21:56:24.084Z,30.20
2019-02-03T21:58:51.696Z,32.63
2019-02-03T22:01:19.208Z,31.83
2019-02-03T22:03:46.658Z,32.50
2019-02-03T22:06:14.647Z,30.23
2019-02-03T22:08:42.309Z,26.77
2019-02-03T22:11:09.920Z,41.00
2019-02-03T22:13:37.611Z,29.97
2019-02-03T22:16:05.222Z,27.90
2019-02-03T22:18:32.802Z,33.73
2019-02-03T22:21:00.752Z,30.80
2019-02-03T22:23:28.334Z,40.43
2019-02-03T22:25:56.469Z,26.93
2019-02-03T22:28:24.026Z,43.67
2019-02-03T22:30:51.593Z,42.87
2019-02-03T22:33:19.148Z,49.33
2019-02-03T22:35:48.160Z,34.10
2019-02-03T22:38:15.871Z,29.80
2019-02-03T22:40:43.591Z,34.03
2019-02-03T22:43:11.135Z,32.33
2019-02-03T22:45:39.172Z,37.37
2019-02-03T22:48:07.605Z,41.27
2019-02-03T22:50:35.317Z,85.10
2019-02-03T22:53:03.107Z,43.43
2019-02-03T22:55:30.797Z,93.57
2019-02-03T22:57:58.455Z,75.13
2019-02-03T23:00:58.671Z,78.03
2019-02-03T23:03:35.838Z,40.87
2019-02-03T23:06:04.589Z,106.37
2019-02-03T23:08:32.677Z,78.40
2019-02-03T23:11:00.217Z,88.47
2019-02-03T23:13:28.523Z,115.13
2019-02-03T23:15:56.085Z,34.60
2019-02-03T23:18:23.790Z,61.13
2019-02-03T23:20:51.281Z,125.37
2019-02-03T23:23:18.730Z,136.83
2019-02-03T23:25:46.161Z,233.13
2019-02-03T23:28:13.608Z,273.70
2019-02-03T23:30:41.458Z,164.50
2019-02-03T23:33:10.000Z,188.87
2019-02-03T23:35:37.358Z,254.63
2019-02-03T23:38:07.259Z,181.47
2019-02-03T23:40:34.710Z,316.53
2019-02-03T23:43:04.316Z,188.17
2019-02-03T23:45:32.115Z,165.00
2019-02-03T23:47:59.530Z,81.40
2019-02-03T23:50:27.038Z,109.73
2019-02-03T23:52:54.537Z,123.67
2019-02-03T23:55:21.991Z,80.10
2019-02-03T23:57:49.497Z,61.23
